createdAt,value
2022-10-11T00:02:49.338Z,1.13
2022-10-11T00:05:19.868Z,1.10
2022-10-11T00:07:50.363Z,1.25
2022-10-11T00:12:53.591Z,0.40
2022-10-11T00:15:24.773Z,0.60
2022-10-11T00:17:55.204Z,0.35
2022-10-11T00:20:27.313Z,1.67
2022-10-11T00:22:57.712Z,0.60
2022-10-11T00:25:28.114Z,0.88
2022-10-11T00:27:58.699Z,0.32
2022-10-11T00:32:58.769Z,0.52
2022-10-11T00:35:29.783Z,0.40
2022-10-11T00:38:00.101Z,0.50
2022-10-11T00:43:00.472Z,0.93
2022-10-11T00:48:14.471Z,0.40
2022-10-11T00:50:45.120Z,0.40
2022-10-11T00:53:16.152Z,0.65
2022-10-11T00:55:55.718Z,0.38
2022-10-11T00:58:26.616Z,0.32
2022-10-11T01:00:57.314Z,0.75
2022-10-11T01:03:30.134Z,0.60
2022-10-11T01:06:00.587Z,0.45
2022-10-11T01:08:32.034Z,0.35
2022-10-11T01:11:02.865Z,0.50
2022-10-11T01:14:06.976Z,0.63
2022-10-11T01:16:59.836Z,0.15
2022-10-11T01:19:42.116Z,0.63
2022-10-11T01:22:48.455Z,0.32
2022-10-11T01:25:37.077Z,0.45
2022-10-11T01:28:44.184Z,0.50
2022-10-11T01:31:38.713Z,0.60
2022-10-11T01:34:18.884Z,0.50
2022-10-11T01:37:06.325Z,0.60
2022-10-11T01:39:48.088Z,1.20
2022-10-11T01:42:20.340Z,0.35
2022-10-11T01:44:52.638Z,0.43
2022-10-11T01:47:24.548Z,0.90
2022-10-11T01:50:00.111Z,0.55
2022-10-11T01:52:35.445Z,1.08
2022-10-11T01:55:12.209Z,1.25
2022-10-11T02:00:55.132Z,1.08
2022-10-11T02:03:43.551Z,1.60
2022-10-11T02:06:38.500Z,1.48
2022-10-11T02:09:31.939Z,1.50
2022-10-11T02:12:09.350Z,1.63
2022-10-11T02:14:44.551Z,0.90
2022-10-11T02:17:22.146Z,0.98
2022-10-11T02:19:56.350Z,0.82
2022-10-11T02:22:35.859Z,1.25
2022-10-11T02:25:11.994Z,1.20
2022-10-11T02:27:45.093Z,0.88
2022-10-11T02:30:16.998Z,0.70
2022-10-11T02:32:49.253Z,0.82
2022-10-11T02:35:20.677Z,0.65
2022-10-11T02:37:54.206Z,0.50
2022-10-11T02:40:32.772Z,1.08
2022-10-11T02:43:26.417Z,0.85
2022-10-11T02:46:01.274Z,0.60
2022-10-11T02:48:33.955Z,0.55
2022-10-11T02:51:05.249Z,0.75
2022-10-11T02:53:35.833Z,0.68
2022-10-11T02:56:06.803Z,0.52
2022-10-11T02:58:37.674Z,0.70
2022-10-11T03:01:08.301Z,0.85
2022-10-11T03:03:39.060Z,0.82
2022-10-11T03:06:10.605Z,0.85
2022-10-11T03:08:41.293Z,0.70
2022-10-11T03:11:11.759Z,0.63
2022-10-11T03:13:42.294Z,0.73
2022-10-11T03:16:13.398Z,1.00
2022-10-11T03:18:44.823Z,1.08
2022-10-11T03:21:15.384Z,0.70
2022-10-11T03:23:46.159Z,0.73
2022-10-11T03:26:16.543Z,0.60
2022-10-11T03:28:47.052Z,1.27
2022-10-11T03:33:47.569Z,0.80
2022-10-11T03:36:18.674Z,0.88
2022-10-11T03:38:49.401Z,0.80
2022-10-11T03:43:50.068Z,0.75
2022-10-11T03:46:20.478Z,1.05
2022-10-11T03:48:50.896Z,0.70
2022-10-11T03:51:21.347Z,0.70
2022-10-11T03:53:51.900Z,1.02
2022-10-11T03:58:52.280Z,0.40
2022-10-11T04:01:22.745Z,0.30
2022-10-11T04:06:22.831Z,0.25
2022-10-11T04:08:53.315Z,0.52
2022-10-11T04:13:53.675Z,0.60
2022-10-11T04:18:53.924Z,0.70
2022-10-11T04:21:24.437Z,0.70
2022-10-11T04:26:26.246Z,0.30
2022-10-11T04:28:56.815Z,0.20
2022-10-11T04:33:56.981Z,0.10
2022-10-11T04:36:27.724Z,0.32
2022-10-11T04:38:58.226Z,0.10
2022-10-11T04:43:59.072Z,0.00
2022-10-11T04:46:30.014Z,0.10
2022-10-11T04:49:00.957Z,0.10
2022-10-11T04:51:31.700Z,0.10
2022-10-11T04:54:02.414Z,0.28
2022-10-11T04:56:32.906Z,0.13
2022-10-11T05:01:33.305Z,0.10
2022-10-11T05:06:33.514Z,0.40
2022-10-11T05:09:03.836Z,0.03
2022-10-11T05:11:34.255Z,0.00
2022-10-11T05:14:04.971Z,0.00
2022-10-11T05:16:35.560Z,0.00
2022-10-11T05:19:05.954Z,0.10
2022-10-11T05:21:36.319Z,0.00
2022-10-11T05:24:07.114Z,0.00
2022-10-11T05:26:37.551Z,0.10
2022-10-11T05:29:07.964Z,0.05
2022-10-11T05:31:38.384Z,0.00
2022-10-11T05:34:08.797Z,0.10
2022-10-11T05:36:39.250Z,0.10
2022-10-11T05:39:09.725Z,0.00
2022-10-11T05:41:39.936Z,0.00
2022-10-11T05:44:11.255Z,0.10
2022-10-11T05:46:41.875Z,0.10
2022-10-11T05:49:12.434Z,0.03
2022-10-11T05:51:42.764Z,0.00
2022-10-11T05:54:13.285Z,0.00
2022-10-11T05:56:43.638Z,0.00
2022-10-11T05:59:13.886Z,0.00
2022-10-11T06:01:44.281Z,0.00
2022-10-11T06:04:15.856Z,0.00
2022-10-11T06:06:46.394Z,0.10
2022-10-11T06:09:16.637Z,0.10
2022-10-11T06:11:47.351Z,0.10
2022-10-11T06:14:17.857Z,0.10
2022-10-11T06:19:18.158Z,0.10
2022-10-11T06:21:49.719Z,0.03
2022-10-11T06:24:20.166Z,0.10
2022-10-11T06:26:53.151Z,0.50
2022-10-11T06:29:24.012Z,1.00
2022-10-11T06:31:54.464Z,1.88
2022-10-11T06:34:25.021Z,2.05
2022-10-11T06:39:25.392Z,1.80
2022-10-11T06:44:26.052Z,1.38
2022-10-11T06:46:56.393Z,1.33
2022-10-11T06:49:26.830Z,1.55
2022-10-11T06:51:57.192Z,1.45
2022-10-11T06:54:27.735Z,1.40
2022-10-11T06:56:57.989Z,1.70
2022-10-11T06:59:48.236Z,1.30
2022-10-11T07:02:18.638Z,1.55
2022-10-11T07:04:49.114Z,1.48
2022-10-11T07:09:49.394Z,1.10
2022-10-11T07:12:19.805Z,1.67
2022-10-11T07:14:50.204Z,1.38
2022-10-11T07:17:20.592Z,1.80
2022-10-11T07:19:51.127Z,1.50
2022-10-11T07:24:51.255Z,1.75
2022-10-11T07:29:53.442Z,1.58
2022-10-11T07:32:23.646Z,1.73
2022-10-11T07:34:54.092Z,1.70
2022-10-11T07:37:24.501Z,1.85
2022-10-11T07:39:54.808Z,1.52
2022-10-11T07:44:55.526Z,1.30
2022-10-11T07:47:26.019Z,1.13
2022-10-11T07:49:56.228Z,1.30
2022-10-11T07:52:26.620Z,1.27
2022-10-11T07:54:57.205Z,1.23
2022-10-11T07:57:27.639Z,1.40
2022-10-11T07:59:58.061Z,1.08
2022-10-11T08:02:28.375Z,0.88
2022-10-11T08:04:58.933Z,0.70
2022-10-11T08:07:30.924Z,1.30
2022-10-11T08:10:01.562Z,1.15
2022-10-11T08:12:32.047Z,1.05
2022-10-11T08:15:03.004Z,0.80
2022-10-11T08:17:33.440Z,0.90
2022-10-11T08:20:04.112Z,1.27
2022-10-11T08:22:34.607Z,1.13
2022-10-11T08:27:34.995Z,1.40
2022-10-11T08:30:06.057Z,1.23
2022-10-11T08:32:36.470Z,1.38
2022-10-11T08:37:38.048Z,1.20
2022-10-11T08:42:48.214Z,0.90
2022-10-11T08:45:46.257Z,0.80
2022-10-11T08:48:42.929Z,0.98
2022-10-11T08:51:37.608Z,1.00
2022-10-11T08:54:39.021Z,1.17
2022-10-11T08:57:13.387Z,1.30
2022-10-11T08:59:51.358Z,1.13
2022-10-11T09:03:02.941Z,1.33
2022-10-11T09:05:32.791Z,1.80
2022-10-11T09:08:23.555Z,1.50
2022-10-11T09:11:22.259Z,1.75
2022-10-11T09:14:14.101Z,1.50
2022-10-11T09:17:11.867Z,1.55
2022-10-11T09:19:54.896Z,1.35
2022-10-11T09:22:31.009Z,1.33
2022-10-11T09:25:36.705Z,1.48
2022-10-11T09:28:31.852Z,1.50
2022-10-11T09:31:02.587Z,1.23
2022-10-11T09:33:41.867Z,1.52
2022-10-11T09:36:37.924Z,2.00
2022-10-11T09:39:28.917Z,1.70
2022-10-11T09:42:12.630Z,1.30
2022-10-11T09:44:54.223Z,1.30
2022-10-11T09:47:30.964Z,1.55
2022-10-11T09:52:36.586Z,1.63
2022-10-11T09:55:07.349Z,1.75
2022-10-11T09:57:42.247Z,2.55
2022-10-11T10:00:23.128Z,3.40
2022-10-11T10:02:56.223Z,4.28
2022-10-11T10:05:32.532Z,5.18
2022-10-11T10:08:12.115Z,4.35
2022-10-11T10:10:58.493Z,3.90
2022-10-11T10:13:52.556Z,3.25
2022-10-11T10:16:25.343Z,3.20
2022-10-11T10:19:19.342Z,3.35
2022-10-11T10:21:52.229Z,3.60
2022-10-11T10:24:34.815Z,3.53
2022-10-11T10:27:24.903Z,3.45
2022-10-11T10:30:10.690Z,3.70
2022-10-11T10:33:12.189Z,3.40
2022-10-11T10:35:56.219Z,3.92
2022-10-11T10:38:56.214Z,3.78
2022-10-11T10:41:27.548Z,3.90
2022-10-11T10:44:02.357Z,4.25
2022-10-11T10:46:57.944Z,3.80
2022-10-11T10:49:54.165Z,4.07
2022-10-11T10:53:11.451Z,4.25
2022-10-11T10:55:47.821Z,4.50
2022-10-11T10:58:57.031Z,4.57
2022-10-11T11:01:37.967Z,4.88
2022-10-11T11:04:31.078Z,4.35
2022-10-11T11:07:26.693Z,5.68
2022-10-11T11:10:07.604Z,5.00
2022-10-11T11:12:47.302Z,4.57
2022-10-11T11:15:40.791Z,6.63
2022-10-11T11:18:43.451Z,5.10
2022-10-11T11:21:41.756Z,7.03
2022-10-11T11:24:35.162Z,5.82
2022-10-11T11:27:21.795Z,6.88
2022-10-11T11:30:07.389Z,5.18
2022-10-11T11:32:49.538Z,6.03
2022-10-11T11:35:34.568Z,6.28
2022-10-11T11:38:31.904Z,7.53
2022-10-11T11:41:07.344Z,6.70
2022-10-11T11:43:43.714Z,6.70
2022-10-11T11:46:20.540Z,7.20
2022-10-11T11:48:52.634Z,7.13
2022-10-11T11:51:37.016Z,6.93
2022-10-11T11:54:38.609Z,6.75
2022-10-11T12:00:11.517Z,5.55
2022-10-11T12:02:44.795Z,6.55
2022-10-11T12:05:18.713Z,5.90
2022-10-11T12:08:00.283Z,6.85
2022-10-11T12:10:51.967Z,6.88
2022-10-11T12:13:39.815Z,6.13
2022-10-11T12:16:14.305Z,6.82
2022-10-11T12:18:59.434Z,6.68
2022-10-11T12:21:34.078Z,6.75
2022-10-11T12:24:25.720Z,7.13
2022-10-11T12:27:00.241Z,7.60
2022-10-11T12:29:47.535Z,7.68
2022-10-11T12:32:29.981Z,7.18
2022-10-11T12:35:34.967Z,7.15
2022-10-11T12:38:24.534Z,7.07
2022-10-11T12:41:11.194Z,5.43
2022-10-11T12:43:50.497Z,6.22
2022-10-11T12:46:33.159Z,5.65
2022-10-11T12:49:23.182Z,5.97
2022-10-11T12:52:02.575Z,6.18
2022-10-11T12:54:45.336Z,5.97
2022-10-11T12:59:49.248Z,5.40
2022-10-11T13:02:31.257Z,5.93
2022-10-11T13:05:43.275Z,6.00
2022-10-11T13:08:20.787Z,5.53
2022-10-11T13:10:51.229Z,5.10
2022-10-11T13:16:24.792Z,6.20
2022-10-11T13:19:00.892Z,7.20
2022-10-11T13:21:39.996Z,6.20
2022-10-11T13:24:18.830Z,5.90
2022-10-11T13:26:52.239Z,4.28
2022-10-11T13:29:25.450Z,4.40
2022-10-11T13:31:56.020Z,3.72
2022-10-11T13:34:27.490Z,3.40
2022-10-11T13:37:00.940Z,4.00
2022-10-11T13:39:40.476Z,4.05
2022-10-11T13:42:18.130Z,4.15
2022-10-11T13:44:49.483Z,3.80
2022-10-11T13:47:23.591Z,4.35
2022-10-11T13:50:20.749Z,4.15
2022-10-11T13:53:04.842Z,4.15
2022-10-11T13:55:44.062Z,3.85
2022-10-11T13:58:19.717Z,4.03
2022-10-11T14:01:04.803Z,3.95
2022-10-11T14:03:45.325Z,4.32
2022-10-11T14:06:15.912Z,3.75
2022-10-11T14:08:53.168Z,3.75
2022-10-11T14:11:42.089Z,2.83
2022-10-11T14:14:30.971Z,3.53
2022-10-11T14:17:07.404Z,2.90
2022-10-11T14:19:37.841Z,2.97
2022-10-11T14:24:39.130Z,3.33
2022-10-11T14:27:13.158Z,4.28
2022-10-11T14:30:00.470Z,5.60
2022-10-11T14:32:37.726Z,5.13
2022-10-11T14:35:08.589Z,5.13
2022-10-11T14:37:42.122Z,5.13
2022-10-11T14:42:46.376Z,6.18
2022-10-11T14:45:17.288Z,6.57
2022-10-11T14:47:47.608Z,6.78
2022-10-11T14:50:40.542Z,7.22
2022-10-11T14:53:12.220Z,7.20
2022-10-11T14:55:43.773Z,6.20
2022-10-11T14:58:16.617Z,7.28
2022-10-11T15:00:48.180Z,6.80
2022-10-11T15:03:18.691Z,6.90
2022-10-11T15:05:49.222Z,6.32
2022-10-11T15:08:20.713Z,8.02
2022-10-11T15:10:51.284Z,6.93
2022-10-11T15:13:21.685Z,7.78
2022-10-11T15:18:22.526Z,7.85
2022-10-11T15:20:56.182Z,8.25
2022-10-11T15:23:27.163Z,6.68
2022-10-11T15:25:57.757Z,5.97
2022-10-11T15:28:33.271Z,5.97
2022-10-11T15:31:03.954Z,6.03
2022-10-11T15:33:34.385Z,6.10
2022-10-11T15:38:35.695Z,6.20
2022-10-11T15:41:06.956Z,6.40
2022-10-11T15:43:37.444Z,6.05
2022-10-11T15:46:08.504Z,5.00
2022-10-11T15:48:39.714Z,5.43
2022-10-11T15:51:10.198Z,5.00
2022-10-11T15:53:40.617Z,4.88
2022-10-11T15:56:16.588Z,5.05
2022-10-11T15:58:47.440Z,5.00
2022-10-11T16:01:22.501Z,5.20
2022-10-11T16:03:53.212Z,4.60
2022-10-11T16:06:23.782Z,4.90
2022-10-11T16:08:54.184Z,5.18
2022-10-11T16:13:54.451Z,4.57
2022-10-11T16:18:55.467Z,4.07
2022-10-11T16:21:26.071Z,4.65
2022-10-11T16:23:56.435Z,5.57
2022-10-11T16:28:57.897Z,4.20
2022-10-11T16:31:28.467Z,6.50
2022-10-11T16:36:41.602Z,5.93
2022-10-11T16:41:47.382Z,5.75
2022-10-11T16:44:20.567Z,6.82
2022-10-11T16:46:51.418Z,8.00
2022-10-11T16:49:25.484Z,8.15
2022-10-11T16:51:57.935Z,8.43
2022-10-11T16:54:29.429Z,9.23
2022-10-11T16:57:00.808Z,10.90
2022-10-11T16:59:31.593Z,10.90
2022-10-11T17:02:02.831Z,11.45
2022-10-11T17:04:34.302Z,12.75
2022-10-11T17:07:05.624Z,12.63
2022-10-11T17:09:39.111Z,11.07
2022-10-11T17:12:14.248Z,9.25
2022-10-11T17:14:45.224Z,8.35
2022-10-11T17:17:16.015Z,8.88
2022-10-11T17:19:46.802Z,8.88
2022-10-11T17:22:21.601Z,7.13
2022-10-11T17:24:52.116Z,6.32
2022-10-11T17:27:22.585Z,5.97
2022-10-11T17:29:52.941Z,7.70
2022-10-11T17:34:52.904Z,7.35
2022-10-11T17:37:23.477Z,7.57
2022-10-11T17:39:55.134Z,7.47
2022-10-11T17:42:25.598Z,7.13
2022-10-11T17:44:56.405Z,6.75
2022-10-11T17:47:26.972Z,6.82
2022-10-11T17:49:57.290Z,5.93
2022-10-11T17:54:57.766Z,5.13
2022-10-11T17:57:28.214Z,4.95
2022-10-11T17:59:58.594Z,5.30
2022-10-11T18:04:59.355Z,5.32
2022-10-11T18:07:29.867Z,4.55
2022-10-11T18:10:00.211Z,4.28
2022-10-11T18:15:01.799Z,5.25
2022-10-11T18:20:02.985Z,5.00
2022-10-11T18:22:33.541Z,5.03
2022-10-11T18:25:03.935Z,4.57
2022-10-11T18:30:06.652Z,4.40
2022-10-11T18:32:37.321Z,4.72
2022-10-11T18:35:08.155Z,4.60
2022-10-11T18:37:39.065Z,4.70
2022-10-11T18:40:10.387Z,5.10
2022-10-11T18:42:40.898Z,5.00
2022-10-11T18:45:12.016Z,4.78
2022-10-11T18:47:42.361Z,4.05
2022-10-11T18:50:12.970Z,3.65
2022-10-11T18:52:44.695Z,5.40
2022-10-11T18:55:15.659Z,5.00
2022-10-11T18:57:46.130Z,5.10
2022-10-11T19:00:39.683Z,4.95
2022-10-11T19:03:07.988Z,5.25
2022-10-11T19:05:40.856Z,4.90
2022-10-11T19:08:11.344Z,5.57
2022-10-11T19:10:42.682Z,5.28
2022-10-11T19:13:13.157Z,5.28
2022-10-11T19:15:43.635Z,4.32
2022-10-11T19:18:15.946Z,5.15
2022-10-11T19:20:50.032Z,4.78
2022-10-11T19:23:20.817Z,5.07
2022-10-11T19:25:51.160Z,5.22
2022-10-11T19:30:51.224Z,4.82
2022-10-11T19:33:21.664Z,4.55
2022-10-11T19:38:25.444Z,4.32
2022-10-11T19:43:25.664Z,5.10
2022-10-11T19:48:41.834Z,4.88
2022-10-11T19:51:15.704Z,5.82
2022-10-11T19:53:47.290Z,6.50
2022-10-11T19:56:19.675Z,5.63
2022-10-11T19:58:50.365Z,5.57
2022-10-11T20:01:23.211Z,5.07
2022-10-11T20:04:00.743Z,5.70
2022-10-11T20:06:35.826Z,5.40
2022-10-11T20:09:28.673Z,5.22
2022-10-11T20:12:00.693Z,4.95
2022-10-11T20:14:31.226Z,4.18
2022-10-11T20:17:01.592Z,5.05
2022-10-11T20:22:03.340Z,5.07
2022-10-11T20:24:35.475Z,5.53
2022-10-11T20:27:07.081Z,5.43
2022-10-11T20:29:37.571Z,5.60
2022-10-11T20:32:08.070Z,6.20
2022-10-11T20:34:40.729Z,6.72
2022-10-11T20:37:11.046Z,6.93
2022-10-11T20:42:11.172Z,6.10
2022-10-11T20:47:11.447Z,5.68
2022-10-11T20:49:42.783Z,5.00
2022-10-11T20:52:13.202Z,5.32
2022-10-11T20:54:43.867Z,5.55
2022-10-11T20:57:14.292Z,5.35
2022-10-11T21:02:18.779Z,5.85
2022-10-11T21:04:49.970Z,5.28
2022-10-11T21:07:20.522Z,5.68
2022-10-11T21:09:50.947Z,6.70
2022-10-11T21:14:50.929Z,6.28
2022-10-11T21:17:21.321Z,6.90
2022-10-11T21:22:21.644Z,5.15
2022-10-11T21:27:21.682Z,5.88
2022-10-11T21:29:52.435Z,7.13
2022-10-11T21:32:22.817Z,6.25
2022-10-11T21:34:53.174Z,8.30
2022-10-11T21:37:23.646Z,8.48
2022-10-11T21:39:54.116Z,9.85
2022-10-11T21:42:29.272Z,10.00
2022-10-11T21:45:00.087Z,10.45
2022-10-11T21:47:31.499Z,10.52
2022-10-11T21:50:02.049Z,9.05
2022-10-11T21:55:03.435Z,6.72
2022-10-11T21:57:33.844Z,5.32
2022-10-11T22:02:42.821Z,5.85
2022-10-11T22:05:13.583Z,5.32
2022-10-11T22:07:43.998Z,5.80
2022-10-11T22:12:44.331Z,4.90
2022-10-11T22:17:55.757Z,4.90
2022-10-11T22:20:26.138Z,5.13
2022-10-11T22:25:26.604Z,4.93
2022-10-11T22:27:56.948Z,5.40
2022-10-11T22:30:27.404Z,5.70
2022-10-11T22:35:27.775Z,6.50
2022-10-11T22:40:27.585Z,5.60
2022-10-11T22:45:27.674Z,5.88
2022-10-11T22:47:58.101Z,6.50
2022-10-11T22:52:58.279Z,6.45
2022-10-11T22:55:28.862Z,6.10
2022-10-11T22:57:59.226Z,6.85
2022-10-11T23:00:29.907Z,7.40
2022-10-11T23:03:00.392Z,8.32
2022-10-11T23:08:01.121Z,6.63
2022-10-11T23:10:31.635Z,7.68
2022-10-11T23:13:01.791Z,6.85
2022-10-11T23:15:32.040Z,7.63
2022-10-11T23:20:31.842Z,6.45
2022-10-11T23:23:02.122Z,6.80
2022-10-11T23:25:32.765Z,7.53
2022-10-11T23:28:03.794Z,8.35
2022-10-11T23:30:34.339Z,6.93
2022-10-11T23:33:04.749Z,7.15
2022-10-11T23:38:06.348Z,7.60
2022-10-11T23:40:36.626Z,7.40
2022-10-11T23:45:36.792Z,5.93
2022-10-11T23:48:07.442Z,7.50
2022-10-11T23:50:37.926Z,6.63
2022-10-11T23:53:08.290Z,7.28
2022-10-11T23:55:38.738Z,8.85
